Time;durP1;ratioP1;P1;durP2;ratioP2;P2;SDS_P1;SDS_P2;PMS_P1;PMS_P2;Temp;Humidity;BMP_temperature;BMP_pressure;BME280_temperature;BME280_humidity;BME280_pressure;Samples;Min_cycle;Max_cycle;Signal;HPM_P1;HPM_P2
2021/01/04 00:01:04;;;;;;;7.75;3.90;;;15.90;64.20;;;;;;4990669;28;20072;-64
2021/01/04 00:03:32;;;;;;;8.70;4.47;;;15.90;64.00;;;;;;4975208;28;20530;-64
2021/01/04 00:06:17;;;;;;;8.52;4.32;;;15.90;64.00;;;;;;4979233;28;20031;-65
2021/01/04 00:09:02;;;;;;;7.72;3.70;;;15.90;64.10;;;;;;4980878;28;20026;-64
2021/01/04 00:11:38;;;;;;;7.88;3.42;;;15.90;64.20;;;;;;4980716;28;20019;-64
2021/01/04 00:14:12;;;;;;;10.27;3.80;;;15.90;63.90;;;;;;4975385;28;20407;-64
2021/01/04 00:17:14;;;;;;;7.13;3.53;;;15.80;64.50;;;;;;4990174;28;20022;-64
2021/01/04 00:20:07;;;;;;;7.85;3.78;;;15.80;64.20;;;;;;4953617;28;20093;-64
2021/01/04 00:23:02;;;;;;;8.50;3.90;;;15.80;64.20;;;;;;4971753;28;20019;-64
2021/01/04 00:25:37;;;;;;;6.00;2.90;;;15.80;64.20;;;;;;4981091;28;20488;-64
2021/01/04 00:28:07;;;;;;;7.93;3.60;;;15.80;64.50;;;;;;4988320;28;20130;-64
2021/01/04 00:30:39;;;;;;;7.35;3.35;;;15.80;64.40;;;;;;4990450;28;20030;-65
2021/01/04 00:33:49;;;;;;;9.85;3.25;;;15.80;64.20;;;;;;4987800;28;20057;-64
2021/01/04 00:36:33;;;;;;;9.20;3.15;;;15.70;64.00;;;;;;4971755;28;20110;-64
2021/01/04 00:39:23;;;;;;;6.63;3.00;;;15.80;64.40;;;;;;4987521;28;20089;-64
2021/01/04 00:42:28;;;;;;;8.20;3.40;;;15.70;64.30;;;;;;4986734;28;20034;-64
2021/01/04 00:45:24;;;;;;;6.63;2.83;;;15.70;64.30;;;;;;4981362;28;20030;-64
2021/01/04 00:48:21;;;;;;;5.78;3.15;;;15.70;64.10;;;;;;4979789;28;20039;-63
2021/01/04 00:50:50;;;;;;;7.05;2.83;;;15.70;64.10;;;;;;4982875;28;20026;-64
2021/01/04 00:53:23;;;;;;;7.10;3.22;;;15.70;64.20;;;;;;4987461;28;20480;-63
2021/01/04 00:56:08;;;;;;;6.45;3.17;;;15.70;64.10;;;;;;4987788;28;20037;-64
2021/01/04 00:58:56;;;;;;;6.00;2.58;;;15.60;64.50;;;;;;4983350;28;20026;-64
2021/01/04 01:01:44;;;;;;;7.28;2.88;;;15.60;64.50;;;;;;4985556;28;20384;-64
2021/01/04 01:04:31;;;;;;;6.43;2.60;;;15.60;64.60;;;;;;4975632;28;20050;-63
2021/01/04 01:07:13;;;;;;;11.40;3.33;;;15.60;64.30;;;;;;4977436;28;20096;-63
2021/01/04 01:09:45;;;;;;;5.88;2.95;;;15.60;64.20;;;;;;4986386;28;20488;-64
2021/01/04 01:12:20;;;;;;;6.53;3.00;;;15.60;64.60;;;;;;4990742;28;20038;-64
2021/01/04 01:15:13;;;;;;;6.93;2.40;;;15.60;64.30;;;;;;4995913;28;20061;-64
2021/01/04 01:18:15;;;;;;;5.45;2.65;;;15.60;64.20;;;;;;4984812;28;20073;-63
2021/01/04 01:20:55;;;;;;;7.35;2.80;;;15.60;64.20;;;;;;4989016;28;20025;-63
2021/01/04 01:23:24;;;;;;;7.70;2.60;;;15.50;64.20;;;;;;4981113;28;20089;-63
2021/01/04 01:26:02;;;;;;;5.55;2.63;;;15.60;64.50;;;;;;4982296;28;20494;-65
2021/01/04 01:28:57;;;;;;;7.28;2.60;;;15.60;64.30;;;;;;4993846;28;20034;-64
2021/01/04 01:31:57;;;;;;;5.82;2.42;;;15.50;64.30;;;;;;4979643;28;20065;-64
2021/01/04 01:35:04;;;;;;;5.90;2.08;;;15.50;64.40;;;;;;4978792;28;20511;-64
2021/01/04 01:38:01;;;;;;;4.90;2.30;;;15.40;64.50;;;;;;4977429;28;20042;-64
2021/01/04 01:40:45;;;;;;;7.35;2.40;;;15.40;64.70;;;;;;4988346;28;20026;-65
2021/01/04 01:43:44;;;;;;;4.90;2.20;;;15.40;64.70;;;;;;4980354;28;20034;-65
2021/01/04 01:46:25;;;;;;;4.80;2.10;;;15.40;64.70;;;;;;4978694;28;20046;-64
2021/01/04 01:49:19;;;;;;;5.75;2.40;;;15.40;64.70;;;;;;4987874;28;20285;-64
2021/01/04 01:52:17;;;;;;;4.82;2.25;;;15.40;64.70;;;;;;4987333;28;20037;-64
2021/01/04 01:55:14;;;;;;;3.85;2.00;;;15.40;64.70;;;;;;4993775;28;20297;-65
2021/01/04 01:57:54;;;;;;;5.15;1.95;;;15.40;64.50;;;;;;4976220;28;20062;-64
2021/01/04 02:00:43;;;;;;;6.07;2.22;;;15.40;64.50;;;;;;4988808;28;20026;-65
2021/01/04 02:03:28;;;;;;;5.30;2.40;;;15.30;64.60;;;;;;4971741;28;20038;-64
2021/01/04 02:06:22;;;;;;;5.20;2.00;;;15.30;64.90;;;;;;4984287;28;20050;-65
2021/01/04 02:09:03;;;;;;;3.90;1.90;;;15.30;64.60;;;;;;4988436;28;20023;-64
2021/01/04 02:12:09;;;;;;;5.68;2.33;;;15.30;64.60;;;;;;4984641;28;20097;-64
2021/01/04 02:15:09;;;;;;;5.22;2.30;;;15.30;64.80;;;;;;4993986;28;20034;-65
2021/01/04 02:18:07;;;;;;;4.15;1.73;;;15.30;64.60;;;;;;4987244;28;20391;-65
2021/01/04 02:20:51;;;;;;;4.18;1.88;;;15.30;64.80;;;;;;4991090;28;20034;-64
2021/01/04 02:23:28;;;;;;;3.88;1.90;;;15.20;64.70;;;;;;4985903;28;20712;-64
2021/01/04 02:25:57;;;;;;;6.80;2.00;;;15.30;64.70;;;;;;4984830;28;20113;-64
2021/01/04 02:28:27;;;;;;;3.05;1.65;;;15.20;64.70;;;;;;4978428;28;20018;-64
2021/01/04 02:30:53;;;;;;;5.22;1.85;;;15.20;64.50;;;;;;4977329;28;20049;-63
2021/01/04 02:33:20;;;;;;;4.53;1.67;;;15.20;64.60;;;;;;4992961;28;20515;-64
2021/01/04 02:35:47;;;;;;;4.63;2.10;;;15.20;64.50;;;;;;4992481;28;20019;-64
2021/01/04 02:38:18;;;;;;;6.30;2.15;;;15.20;64.80;;;;;;4994307;28;20022;-65
2021/01/04 02:40:44;;;;;;;4.38;1.85;;;15.20;64.80;;;;;;4989633;28;20040;-64
2021/01/04 02:43:09;;;;;;;3.97;1.95;;;15.10;64.50;;;;;;4979307;28;20113;-64
2021/01/04 02:45:35;;;;;;;4.35;2.00;;;15.10;64.60;;;;;;4980711;28;20794;-64
2021/01/04 02:48:03;;;;;;;4.97;2.00;;;15.10;64.60;;;;;;4977883;28;20038;-64
2021/01/04 02:51:06;;;;;;;3.72;1.45;;;15.10;64.60;;;;;;4985621;28;20026;-64
2021/01/04 02:53:50;;;;;;;4.47;2.08;;;15.20;64.70;;;;;;4974218;28;20038;-64
2021/01/04 02:56:43;;;;;;;4.10;1.70;;;15.10;64.70;;;;;;4978495;28;20659;-64
2021/01/04 02:59:37;;;;;;;4.03;1.90;;;15.10;64.60;;;;;;4988480;28;20026;-65
2021/01/04 03:02:14;;;;;;;3.35;1.60;;;15.10;64.70;;;;;;4977123;28;20573;-65
2021/01/04 03:04:40;;;;;;;3.95;1.60;;;15.10;64.70;;;;;;4974420;28;20041;-66
2021/01/04 03:07:25;;;;;;;4.43;1.80;;;15.00;64.70;;;;;;4973784;28;20058;-64
2021/01/04 03:09:54;;;;;;;3.67;1.92;;;15.00;64.70;;;;;;4998711;28;20032;-64
2021/01/04 03:12:26;;;;;;;5.20;2.28;;;15.00;64.70;;;;;;4990368;28;20027;-64
2021/01/04 03:14:57;;;;;;;;;;;15.00;64.70;;;;;;4986468;28;20035;-64
2021/01/04 03:17:31;;;;;;;3.95;1.85;;;15.00;64.50;;;;;;4982007;28;19910;-63
2021/01/04 03:20:01;;;;;;;3.60;1.73;;;15.00;64.60;;;;;;4994784;28;20571;-64
2021/01/04 03:22:27;;;;;;;3.45;1.70;;;15.00;64.50;;;;;;4979340;28;20487;-64
2021/01/04 03:24:53;;;;;;;3.13;1.30;;;15.00;64.50;;;;;;4982697;28;20056;-65
2021/01/04 03:27:29;;;;;;;4.05;1.58;;;15.00;64.40;;;;;;4981662;28;20027;-65
2021/01/04 03:29:54;;;;;;;3.38;1.70;;;15.00;64.40;;;;;;4988255;28;20564;-64
2021/01/04 03:32:20;;;;;;;5.95;1.67;;;15.00;64.30;;;;;;4985621;28;20121;-64
2021/01/04 03:34:46;;;;;;;3.88;1.60;;;15.00;64.40;;;;;;4985125;28;20037;-65
2021/01/04 03:37:12;;;;;;;4.85;1.70;;;15.00;64.40;;;;;;4988747;28;20105;-64
2021/01/04 03:39:39;;;;;;;4.10;1.60;;;14.90;64.30;;;;;;4981442;28;20033;-64
2021/01/04 03:42:05;;;;;;;3.92;1.70;;;14.90;64.30;;;;;;4980636;28;20077;-65
2021/01/04 03:44:30;;;;;;;3.88;1.70;;;14.90;64.20;;;;;;4991119;28;20492;-64
2021/01/04 03:46:57;;;;;;;4.13;1.60;;;14.90;64.20;;;;;;4987799;28;20053;-63
2021/01/04 03:49:22;;;;;;;3.20;1.60;;;14.90;64.30;;;;;;4986153;28;20034;-65
2021/01/04 03:51:55;;;;;;;3.85;1.73;;;14.90;64.40;;;;;;4983225;28;20106;-64
2021/01/04 03:54:22;;;;;;;3.35;1.63;;;14.80;64.40;;;;;;4990652;28;20038;-64
2021/01/04 03:56:47;;;;;;;3.50;1.60;;;14.80;64.40;;;;;;4985393;28;20027;-65
2021/01/04 03:59:16;;;;;;;4.35;2.00;;;14.80;64.40;;;;;;4987931;28;20027;-64
2021/01/04 04:01:49;;;;;;;3.25;1.50;;;14.80;64.40;;;;;;4971010;28;20027;-64
2021/01/04 04:04:15;;;;;;;3.60;1.50;;;14.80;64.40;;;;;;4989634;28;20026;-64
2021/01/04 04:06:41;;;;;;;3.10;1.60;;;14.80;64.40;;;;;;4989282;28;20065;-63
2021/01/04 04:09:08;;;;;;;3.92;1.70;;;14.80;64.20;;;;;;4991414;28;20035;-65
2021/01/04 04:11:33;;;;;;;5.00;1.80;;;14.80;64.40;;;;;;4979596;28;20030;-64
2021/01/04 04:13:59;;;;;;;3.25;1.45;;;14.70;64.40;;;;;;4989955;28;20026;-64
2021/01/04 04:16:24;;;;;;;3.20;1.50;;;14.70;64.40;;;;;;4989261;28;20034;-64
2021/01/04 04:18:50;;;;;;;5.22;1.70;;;14.70;65.00;;;;;;4983823;28;20037;-65
2021/01/04 04:21:16;;;;;;;3.55;1.52;;;14.70;64.50;;;;;;4979767;28;20022;-64
2021/01/04 04:23:42;;;;;;;3.72;1.63;;;14.70;64.50;;;;;;4978004;28;20014;-65
2021/01/04 04:26:15;;;;;;;3.72;1.60;;;14.70;64.60;;;;;;4981886;28;20054;-66
2021/01/04 04:28:41;;;;;;;3.63;1.70;;;14.70;64.90;;;;;;4989430;28;20820;-64
2021/01/04 04:31:06;;;;;;;3.45;1.70;;;14.70;64.70;;;;;;4973486;28;20114;-64
2021/01/04 04:33:32;;;;;;;3.75;1.48;;;14.70;64.70;;;;;;4986792;28;20026;-64
2021/01/04 04:35:57;;;;;;;2.20;1.27;;;14.60;64.60;;;;;;4985857;28;20054;-64
2021/01/04 04:38:23;;;;;;;4.18;1.70;;;14.60;64.70;;;;;;4986807;28;20151;-64
2021/01/04 04:40:50;;;;;;;3.03;1.60;;;14.60;64.60;;;;;;4974459;28;20026;-65
2021/01/04 04:43:30;;;;;;;4.05;1.52;;;14.60;64.50;;;;;;4983827;28;20053;-64
2021/01/04 04:45:56;;;;;;;3.17;1.45;;;14.70;64.50;;;;;;4984729;28;20030;-64
2021/01/04 04:48:40;;;;;;;2.83;1.42;;;14.70;64.60;;;;;;4982284;28;20114;-64
2021/01/04 04:51:28;;;;;;;3.42;1.45;;;14.70;64.60;;;;;;4988492;28;20034;-64
2021/01/04 04:53:59;;;;;;;5.35;1.70;;;14.70;64.70;;;;;;4989099;28;20030;-64
2021/01/04 04:56:44;;;;;;;2.67;1.33;;;14.60;64.80;;;;;;4991954;28;20066;-66
2021/01/04 04:59:28;;;;;;;5.30;1.88;;;14.60;64.80;;;;;;4978972;28;20053;-64
2021/01/04 05:02:09;;;;;;;3.35;1.48;;;14.60;65.10;;;;;;4977812;28;20030;-65
2021/01/04 05:04:51;;;;;;;2.83;1.40;;;14.60;65.00;;;;;;4974925;28;20062;-63
2021/01/04 05:07:35;;;;;;;3.50;1.63;;;14.60;65.10;;;;;;4980442;28;20058;-63
2021/01/04 05:10:05;;;;;;;4.45;1.83;;;14.60;64.70;;;;;;4973322;28;20022;-63
2021/01/04 05:13:03;;;;;;;4.22;1.63;;;14.60;65.00;;;;;;4982008;28;20729;-65
2021/01/04 05:15:37;;;;;;;4.15;1.83;;;14.60;65.00;;;;;;4988028;28;20046;-64
2021/01/04 05:18:33;;;;;;;2.78;1.45;;;14.60;65.00;;;;;;4988833;28;20088;-64
2021/01/04 05:21:34;;;;;;;2.95;1.50;;;14.60;65.00;;;;;;4981998;28;20064;-64
2021/01/04 05:24:24;;;;;;;3.60;1.50;;;14.60;64.90;;;;;;4934797;29;20032;-65
2021/01/04 05:27:26;;;;;;;5.22;1.42;;;14.60;65.20;;;;;;4990124;28;20039;-64
2021/01/04 05:30:25;;;;;;;4.15;1.70;;;14.50;65.20;;;;;;4982233;28;20027;-64
2021/01/04 05:33:14;;;;;;;5.45;1.73;;;14.50;64.70;;;;;;4987849;28;20034;-64
2021/01/04 05:35:42;;;;;;;9.60;5.07;;;14.60;64.70;;;;;;4992894;28;20026;-64
2021/01/04 05:38:20;;;;;;;88.07;47.45;;;14.60;64.60;;;;;;4998861;28;20022;-67
2021/01/04 05:41:03;;;;;;;62.10;35.22;;;14.60;64.40;;;;;;4978659;28;20034;-64
2021/01/04 05:43:57;;;;;;;31.15;17.73;;;14.60;64.50;;;;;;4997948;28;20513;-65
2021/01/04 05:46:36;;;;;;;18.48;10.07;;;14.60;64.10;;;;;;4983382;28;20027;-64
2021/01/04 05:49:35;;;;;;;16.85;8.10;;;14.80;63.80;;;;;;4973843;28;20722;-64
2021/01/04 05:52:00;;;;;;;24.77;13.57;;;14.80;63.20;;;;;;4981656;28;20070;-64
2021/01/04 05:54:36;;;;;;;15.15;7.38;;;15.00;63.00;;;;;;4992374;28;20061;-63
2021/01/04 05:57:10;;;;;;;17.20;6.75;;;15.40;62.90;;;;;;4982648;28;20023;-64
2021/01/04 05:59:52;;;;;;;21.10;6.47;;;15.50;61.70;;;;;;4986562;28;20034;-64
2021/01/04 06:02:35;;;;;;;20.00;5.88;;;15.60;61.40;;;;;;4990989;28;20030;-64
2021/01/04 06:05:16;;;;;;;17.25;5.82;;;15.70;61.00;;;;;;4989062;28;20027;-64
2021/01/04 06:07:44;;;;;;;15.20;5.05;;;15.90;60.40;;;;;;4980164;28;20133;-63
2021/01/04 06:10:20;;;;;;;15.52;5.25;;;16.00;59.80;;;;;;4987125;28;20026;-64
2021/01/04 06:12:48;;;;;;;28.05;5.60;;;16.20;59.60;;;;;;4986275;28;20030;-61
2021/01/04 06:15:29;;;;;;;17.88;5.13;;;16.60;58.50;;;;;;4978211;28;20566;-63
2021/01/04 06:18:05;;;;;;;12.30;4.63;;;17.00;57.50;;;;;;4992518;28;20407;-61
2021/01/04 06:20:42;;;;;;;15.13;4.85;;;17.10;56.80;;;;;;4991840;28;20109;-62
2021/01/04 06:23:25;;;;;;;20.27;4.93;;;17.20;56.20;;;;;;4988815;28;20061;-61
2021/01/04 06:25:55;;;;;;;12.50;4.30;;;17.30;56.50;;;;;;4987633;28;20038;-62
2021/01/04 06:28:21;;;;;;;16.65;4.20;;;17.30;56.50;;;;;;4986063;28;20037;-61
2021/01/04 06:30:59;;;;;;;13.68;4.22;;;17.40;55.80;;;;;;4989327;28;20092;-60
2021/01/04 06:33:29;;;;;;;17.20;4.13;;;17.40;56.10;;;;;;4988749;28;20121;-60
2021/01/04 06:36:15;;;;;;;13.93;4.13;;;17.40;56.60;;;;;;4979033;28;20058;-60
2021/01/04 06:38:42;;;;;;;15.90;4.60;;;17.30;56.70;;;;;;4981610;28;20050;-61
2021/01/04 06:41:14;;;;;;;12.60;4.03;;;17.30;56.70;;;;;;4989700;28;20407;-61
2021/01/04 06:43:39;;;;;;;12.80;3.45;;;17.40;56.70;;;;;;4989556;28;20038;-61
2021/01/04 06:46:21;;;;;;;11.90;4.55;;;17.40;56.40;;;;;;4987894;28;20026;-58
2021/01/04 06:48:53;;;;;;;9.20;3.38;;;17.40;56.40;;;;;;4981173;28;20045;-61
2021/01/04 06:52:12;;;;;;;15.52;4.03;;;17.50;56.30;;;;;;4977660;28;20503;-60
2021/01/04 06:54:56;;;;;;;9.70;2.97;;;17.40;56.30;;;;;;4980037;28;20053;-62
2021/01/04 06:57:49;;;;;;;7.68;3.38;;;17.40;56.40;;;;;;4986571;28;20085;-60
2021/01/04 07:00:33;;;;;;;9.65;3.03;;;17.40;56.50;;;;;;4990844;28;20168;-62
2021/01/04 07:03:43;;;;;;;8.93;3.20;;;17.30;56.60;;;;;;4989292;28;20081;-62
2021/01/04 07:06:46;;;;;;;7.65;3.15;;;17.30;56.80;;;;;;4971444;28;20062;-62
2021/01/04 07:09:22;;;;;;;16.52;8.32;;;17.20;57.00;;;;;;4981601;28;20036;-61
2021/01/04 07:12:03;;;;;;;12.82;4.22;;;17.20;57.30;;;;;;4990118;28;20117;-65
2021/01/04 07:15:15;;;;;;;10.63;3.70;;;17.10;57.30;;;;;;4982091;28;20023;-61
2021/01/04 07:18:02;;;;;;;11.35;3.28;;;17.20;57.60;;;;;;4991188;28;20026;-61
2021/01/04 07:21:06;;;;;;;6.70;3.10;;;17.10;57.40;;;;;;4978993;28;20077;-62
2021/01/04 07:23:48;;;;;;;7.70;3.50;;;17.10;57.50;;;;;;4962451;28;20058;-61
2021/01/04 07:26:23;;;;;;;9.75;3.53;;;17.10;57.70;;;;;;4991955;28;20121;-62
2021/01/04 07:28:51;;;;;;;10.35;3.92;;;17.10;57.80;;;;;;4999986;28;20080;-62
2021/01/04 07:31:25;;;;;;;7.90;2.97;;;17.10;58.00;;;;;;4991717;28;20041;-61
2021/01/04 07:34:14;;;;;;;8.48;3.10;;;17.00;57.90;;;;;;4982962;28;20058;-60
2021/01/04 07:36:49;;;;;;;6.77;3.37;;;17.00;58.20;;;;;;4988456;28;20023;-61
2021/01/04 07:39:40;;;;;;;8.52;3.10;;;17.00;58.30;;;;;;4990597;28;20439;-61
2021/01/04 07:42:27;;;;;;;9.05;3.42;;;17.00;58.00;;;;;;4987831;28;20018;-62
2021/01/04 07:45:07;;;;;;;6.70;2.90;;;16.90;58.40;;;;;;4983017;28;20023;-62
2021/01/04 07:48:02;;;;;;;7.38;3.08;;;16.90;58.20;;;;;;4978409;28;20113;-61
2021/01/04 07:50:42;;;;;;;7.10;2.97;;;16.90;58.10;;;;;;4972219;28;20041;-62
2021/01/04 07:53:29;;;;;;;7.05;2.38;;;16.90;58.20;;;;;;4976254;28;20034;-61
2021/01/04 07:56:24;;;;;;;7.32;2.70;;;16.90;58.60;;;;;;4974693;28;20031;-61
2021/01/04 07:59:26;;;;;;;6.68;2.58;;;16.90;58.20;;;;;;4985424;28;20023;-61
2021/01/04 08:02:29;;;;;;;7.18;2.72;;;16.80;58.20;;;;;;4988278;28;20516;-61
2021/01/04 08:05:22;;;;;;;7.13;3.05;;;16.90;58.20;;;;;;4989826;28;20038;-62
2021/01/04 08:08:21;;;;;;;9.85;2.55;;;16.90;58.50;;;;;;4988836;28;20076;-62
2021/01/04 08:11:26;;;;;;;7.57;2.78;;;16.90;58.50;;;;;;4979793;28;20038;-62
2021/01/04 08:14:18;;;;;;;9.95;2.95;;;16.90;58.40;;;;;;4985072;28;20033;-61
2021/01/04 08:17:31;;;;;;;7.88;3.10;;;16.90;58.60;;;;;;4979240;28;20396;-62
2021/01/04 08:20:00;;;;;;;7.95;2.90;;;16.90;58.70;;;;;;4914025;29;20132;-61
2021/01/04 08:23:03;;;;;;;5.63;2.50;;;16.90;58.50;;;;;;4972069;28;20034;-62
2021/01/04 08:25:34;;;;;;;6.47;2.60;;;16.90;58.50;;;;;;4969550;28;20022;-61
2021/01/04 08:28:07;;;;;;;6.28;2.70;;;17.00;58.30;;;;;;4971648;28;20113;-62
2021/01/04 08:31:00;;;;;;;5.78;2.33;;;17.00;58.20;;;;;;4970589;28;20034;-62
2021/01/04 08:33:49;;;;;;;6.05;2.38;;;17.00;58.20;;;;;;4976785;28;20625;-62
2021/01/04 08:36:18;;;;;;;6.70;2.60;;;17.00;58.10;;;;;;4988632;28;20029;-60
2021/01/04 08:38:43;;;;;;;5.03;2.10;;;17.00;58.00;;;;;;4990686;28;20010;-62
2021/01/04 08:41:30;;;;;;;5.88;2.30;;;17.00;58.10;;;;;;4988037;28;20033;-61
2021/01/04 08:43:56;;;;;;;7.38;2.60;;;17.00;57.90;;;;;;4989216;28;20034;-58
2021/01/04 08:46:21;;;;;;;5.60;2.28;;;17.00;58.00;;;;;;4996673;28;20376;-60
2021/01/04 08:48:48;;;;;;;4.63;2.30;;;17.00;57.90;;;;;;4997120;28;20407;-62
2021/01/04 08:51:32;;;;;;;4.22;2.20;;;17.00;58.00;;;;;;4991170;28;20120;-62
2021/01/04 08:54:20;;;;;;;5.25;2.00;;;17.10;57.90;;;;;;5001388;28;20029;-60
2021/01/04 08:57:05;;;;;;;7.57;2.25;;;17.00;57.90;;;;;;4996276;28;20025;-61
2021/01/04 08:59:33;;;;;;;4.55;2.10;;;17.00;58.00;;;;;;5013086;28;20399;-60
2021/01/04 09:02:39;;;;;;;5.22;2.20;;;17.00;58.00;;;;;;4994030;28;20022;-60
2021/01/04 09:05:08;;;;;;;4.78;1.98;;;17.00;58.00;;;;;;4977548;28;20121;-62
2021/01/04 09:07:52;;;;;;;6.15;2.40;;;17.00;58.00;;;;;;4990741;28;20465;-61
2021/01/04 09:10:32;;;;;;;5.18;2.08;;;17.00;58.10;;;;;;4979553;28;20385;-61
2021/01/04 09:13:09;;;;;;;4.60;2.15;;;17.00;58.10;;;;;;4977128;28;20427;-61
2021/01/04 09:15:36;;;;;;;12.07;2.70;;;16.90;57.90;;;;;;4981075;28;20026;-61
2021/01/04 09:18:01;;;;;;;4.75;2.30;;;16.90;58.10;;;;;;4988454;28;20030;-61
2021/01/04 09:21:00;;;;;;;4.03;1.95;;;16.90;58.10;;;;;;4983077;28;20049;-61
2021/01/04 09:23:36;;;;;;;3.85;1.92;;;16.90;58.20;;;;;;4980453;28;20035;-61
2021/01/04 09:26:02;;;;;;;4.03;2.00;;;16.90;58.20;;;;;;4979179;28;20514;-61
2021/01/04 09:28:51;;;;;;;4.78;1.90;;;16.90;58.30;;;;;;4995531;28;20034;-61
2021/01/04 09:31:18;;;;;;;4.35;2.10;;;16.90;58.30;;;;;;4988072;28;20038;-61
2021/01/04 09:33:49;;;;;;;4.90;1.95;;;16.80;58.40;;;;;;4992969;28;20499;-61
2021/01/04 09:36:17;;;;;;;23.98;14.43;;;16.80;58.30;;;;;;4993664;28;20034;-60
2021/01/04 09:38:43;;;;;;;12.80;6.75;;;16.90;58.50;;;;;;5000758;28;20029;-61
2021/01/04 09:41:11;;;;;;;9.23;3.72;;;16.80;58.40;;;;;;5003513;28;20022;-61
2021/01/04 09:43:38;;;;;;;6.78;2.80;;;16.80;58.90;;;;;;5010088;28;20021;-62
2021/01/04 09:46:19;;;;;;;4.43;2.20;;;16.90;58.90;;;;;;4997786;28;20503;-62
2021/01/04 09:48:56;;;;;;;6.95;2.95;;;16.90;58.70;;;;;;4989469;28;20038;-61
2021/01/04 09:51:43;;;;;;;5.80;2.63;;;17.00;58.50;;;;;;4997062;28;20108;-61
2021/01/04 09:54:14;;;;;;;5.32;2.22;;;17.00;58.50;;;;;;5005059;28;20119;-61
2021/01/04 09:56:40;;;;;;;4.97;2.00;;;17.00;58.20;;;;;;5002897;28;20026;-61
2021/01/04 09:59:22;;;;;;;6.32;2.10;;;17.00;58.30;;;;;;4991584;28;20034;-61
2021/01/04 10:01:49;;;;;;;;;;;17.00;58.20;;;;;;4993586;28;20399;-61
2021/01/04 10:04:25;;;;;;;10.02;2.13;;;17.00;57.00;;;;;;4979062;28;19910;-60
2021/01/04 10:06:51;;;;;;;4.40;1.90;;;17.00;57.50;;;;;;4979423;28;20487;-61
2021/01/04 10:09:18;;;;;;;10.15;2.60;;;17.10;58.00;;;;;;4987339;28;20042;-62
2021/01/04 10:11:46;;;;;;;10.15;2.50;;;17.20;59.70;;;;;;4993644;28;20022;-62
2021/01/04 10:14:13;;;;;;;16.65;4.65;;;17.20;59.80;;;;;;4987075;28;20023;-62
2021/01/04 10:16:44;;;;;;;31.08;8.77;;;17.30;59.60;;;;;;4981363;28;20116;-60
2021/01/04 10:19:24;;;;;;;30.58;9.57;;;17.30;58.80;;;;;;4983430;28;20475;-62
2021/01/04 10:21:53;;;;;;;29.33;7.18;;;17.20;61.00;;;;;;4989520;28;20038;-60
2021/01/04 10:24:37;;;;;;;19.63;8.63;;;17.20;62.50;;;;;;4980607;28;20038;-61
2021/01/04 10:27:04;;;;;;;27.20;9.27;;;17.20;61.70;;;;;;4991679;28;20420;-62
2021/01/04 10:29:31;;;;;;;24.80;8.68;;;17.20;61.50;;;;;;4985231;28;20050;-61
2021/01/04 10:32:27;;;;;;;28.48;9.65;;;17.10;61.30;;;;;;4984171;28;20361;-61
2021/01/04 10:34:54;;;;;;;23.48;7.65;;;17.20;61.40;;;;;;4972128;28;20081;-61
2021/01/04 10:37:41;;;;;;;24.02;8.57;;;17.20;61.50;;;;;;4991375;28;20100;-61
2021/01/04 10:40:13;;;;;;;20.98;7.57;;;17.20;61.40;;;;;;4978941;28;20031;-62
2021/01/04 10:42:42;;;;;;;28.77;17.60;;;17.30;59.80;;;;;;4985409;28;20017;-61
2021/01/04 10:45:12;;;;;;;23.80;11.63;;;17.30;58.90;;;;;;4988158;28;20057;-61
2021/01/04 10:47:55;;;;;;;18.88;9.15;;;17.30;59.20;;;;;;4989230;28;20022;-61
2021/01/04 10:50:30;;;;;;;22.95;8.48;;;17.30;58.90;;;;;;4983170;28;20034;-60
2021/01/04 10:52:59;;;;;;;18.02;7.68;;;17.20;59.30;;;;;;4982386;28;20045;-61
2021/01/04 10:55:27;;;;;;;19.83;7.78;;;17.20;59.40;;;;;;4989885;28;20023;-60
2021/01/04 10:57:58;;;;;;;18.50;8.02;;;17.20;59.40;;;;;;4987351;28;20033;-62
2021/01/04 11:00:28;;;;;;;14.48;6.20;;;17.20;59.40;;;;;;4986408;28;20101;-61
2021/01/04 11:02:56;;;;;;;15.38;6.15;;;17.10;58.90;;;;;;5006004;28;20034;-61
2021/01/04 11:05:41;;;;;;;17.17;6.40;;;17.10;59.10;;;;;;4981887;28;20104;-62
2021/01/04 11:08:13;;;;;;;15.00;6.80;;;17.10;59.40;;;;;;4975173;28;20053;-61
2021/01/04 11:10:39;;;;;;;16.05;6.45;;;17.10;59.40;;;;;;4985319;28;20045;-60
2021/01/04 11:13:05;;;;;;;16.75;5.90;;;17.10;59.60;;;;;;4981403;28;20030;-61
2021/01/04 11:15:36;;;;;;;14.15;5.75;;;17.10;59.40;;;;;;4991419;28;20022;-65
2021/01/04 11:18:09;;;;;;;18.47;6.33;;;17.10;59.30;;;;;;4983279;28;20031;-62
2021/01/04 11:20:36;;;;;;;17.00;5.88;;;17.10;60.30;;;;;;4982251;28;20057;-61
2021/01/04 11:23:09;;;;;;;17.70;5.60;;;17.20;59.40;;;;;;4983585;28;20125;-60
2021/01/04 11:25:35;;;;;;;16.13;5.95;;;17.20;59.20;;;;;;4985189;28;20403;-61
2021/01/04 11:28:02;;;;;;;16.42;6.20;;;17.10;59.10;;;;;;4986907;28;20503;-62
2021/01/04 11:30:31;;;;;;;16.95;6.03;;;17.20;59.00;;;;;;4979840;28;20034;-59
2021/01/04 11:32:58;;;;;;;13.70;5.10;;;17.10;58.90;;;;;;4977654;28;20038;-61
2021/01/04 11:35:24;;;;;;;12.77;5.05;;;17.10;58.80;;;;;;4986106;28;20030;-61
2021/01/04 11:37:51;;;;;;;13.70;4.80;;;17.10;58.70;;;;;;4988762;28;20030;-61
2021/01/04 11:40:17;;;;;;;13.52;4.72;;;17.10;58.70;;;;;;4988383;28;20029;-60
2021/01/04 11:42:43;;;;;;;17.45;5.25;;;17.10;58.60;;;;;;4981736;28;20502;-61
2021/01/04 11:45:10;;;;;;;11.73;4.88;;;17.10;58.60;;;;;;4979657;28;20038;-61
2021/01/04 11:47:36;;;;;;;14.27;4.75;;;17.10;58.60;;;;;;4986979;28;20073;-61
2021/01/04 11:50:05;;;;;;;12.05;4.90;;;17.10;58.50;;;;;;4976769;28;20085;-61
2021/01/04 11:52:32;;;;;;;15.25;4.68;;;17.10;58.40;;;;;;4972318;28;20030;-61
2021/01/04 11:54:57;;;;;;;13.15;4.95;;;17.10;58.40;;;;;;4972276;28;20114;-60
2021/01/04 11:57:23;;;;;;;12.38;4.90;;;17.10;58.50;;;;;;4983239;28;20105;-61
2021/01/04 11:59:48;;;;;;;12.20;4.72;;;17.00;58.40;;;;;;4979769;28;20539;-62
2021/01/04 12:02:14;;;;;;;11.32;4.57;;;17.10;58.50;;;;;;4971171;28;20023;-61
2021/01/04 12:04:40;;;;;;;14.07;4.72;;;17.10;58.50;;;;;;4980381;28;20038;-61
2021/01/04 12:07:07;;;;;;;12.15;5.00;;;17.00;58.30;;;;;;4985539;28;20427;-61
2021/01/04 12:09:34;;;;;;;11.60;4.82;;;17.00;58.40;;;;;;5000829;28;20472;-61
2021/01/04 12:12:00;;;;;;;13.82;4.57;;;17.00;59.00;;;;;;4986855;28;20031;-65
2021/01/04 12:14:26;;;;;;;14.50;4.75;;;17.00;58.70;;;;;;4988962;28;20387;-61
2021/01/04 12:16:52;;;;;;;12.60;4.43;;;17.00;58.70;;;;;;4991718;28;20471;-62
2021/01/04 12:19:18;;;;;;;11.75;5.22;;;17.00;58.60;;;;;;4989518;28;20022;-61
2021/01/04 12:21:44;;;;;;;12.20;5.07;;;17.00;58.60;;;;;;4978135;28;20503;-61
2021/01/04 12:24:10;;;;;;;14.18;4.97;;;17.00;58.60;;;;;;4981257;28;20042;-61
2021/01/04 12:26:35;;;;;;;12.13;5.32;;;17.00;58.60;;;;;;4985323;28;20030;-61
2021/01/04 12:29:01;;;;;;;12.75;5.22;;;17.00;58.50;;;;;;4988921;28;20061;-60
2021/01/04 12:31:27;;;;;;;11.00;5.40;;;16.90;58.30;;;;;;4975209;28;20026;-61
2021/01/04 12:33:53;;;;;;;11.88;4.78;;;16.90;58.40;;;;;;4977974;28;20046;-61
2021/01/04 12:36:20;;;;;;;12.93;5.15;;;16.90;58.30;;;;;;4971388;28;20023;-61
2021/01/04 12:38:47;;;;;;;9.93;5.00;;;16.90;58.30;;;;;;4970447;28;20031;-62
2021/01/04 12:41:12;;;;;;;12.18;5.63;;;16.90;58.40;;;;;;4971430;28;20073;-61
2021/01/04 12:43:39;;;;;;;11.88;4.97;;;16.90;58.30;;;;;;4971286;28;20031;-60
2021/01/04 12:46:05;;;;;;;11.10;4.78;;;16.90;58.30;;;;;;4979255;28;20046;-60
2021/01/04 12:48:31;;;;;;;14.75;5.80;;;16.80;58.30;;;;;;5000460;28;20066;-61
2021/01/04 12:50:57;;;;;;;13.00;5.47;;;16.80;58.90;;;;;;4988101;28;20063;-61
2021/01/04 12:53:23;;;;;;;11.50;4.70;;;16.80;59.00;;;;;;4981240;28;20093;-59
2021/01/04 12:55:48;;;;;;;9.52;4.38;;;16.80;59.20;;;;;;4983604;28;20030;-62
2021/01/04 12:58:14;;;;;;;12.35;5.28;;;16.80;59.20;;;;;;4980903;28;20028;-62
2021/01/04 13:00:41;;;;;;;14.68;5.05;;;16.80;59.20;;;;;;4989662;28;20026;-61
2021/01/04 13:03:06;;;;;;;12.43;5.07;;;16.80;59.10;;;;;;4972970;28;20122;-61
2021/01/04 13:05:32;;;;;;;9.38;4.50;;;16.80;59.10;;;;;;4971644;28;20047;-61
2021/01/04 13:07:58;;;;;;;10.65;4.80;;;16.70;59.30;;;;;;4970708;28;20574;-62
2021/01/04 13:10:24;;;;;;;8.63;4.20;;;16.70;59.30;;;;;;4989541;28;20038;-62
2021/01/04 13:12:50;;;;;;;9.77;4.63;;;16.70;59.40;;;;;;4990572;28;20109;-61
2021/01/04 13:15:16;;;;;;;11.13;4.30;;;16.70;59.40;;;;;;4982074;28;20057;-60
2021/01/04 13:17:43;;;;;;;9.98;4.63;;;16.70;59.20;;;;;;4978733;28;20450;-61
2021/01/04 13:20:09;;;;;;;11.02;4.25;;;16.70;59.30;;;;;;4993111;28;20026;-61
2021/01/04 13:22:35;;;;;;;9.38;4.43;;;16.70;59.10;;;;;;4973878;28;20038;-61
2021/01/04 13:25:01;;;;;;;16.17;4.85;;;16.70;59.30;;;;;;4984333;28;20038;-61
2021/01/04 13:27:26;;;;;;;14.38;4.72;;;16.70;59.60;;;;;;4992041;28;20036;-62
2021/01/04 13:29:53;;;;;;;15.93;4.80;;;16.60;60.00;;;;;;4983325;28;20083;-62
2021/01/04 13:32:19;;;;;;;19.90;4.47;;;16.60;59.70;;;;;;4981804;28;20076;-61